sensor_id;sensor_type;location;lat;lon;timestamp;temperature;humidity
17992;DHT22;9121;50.926;5.340;2023-03-26T00:01:59;9.60;59.00
17992;DHT22;9121;50.926;5.340;2023-03-26T00:04:26;9.60;57.40
17992;DHT22;9121;50.926;5.340;2023-03-26T00:06:54;9.60;57.30
17992;DHT22;9121;50.926;5.340;2023-03-26T00:09:21;9.60;55.20
17992;DHT22;9121;50.926;5.340;2023-03-26T00:11:48;9.60;54.50
17992;DHT22;9121;50.926;5.340;2023-03-26T00:14:15;9.60;54.50
17992;DHT22;9121;50.926;5.340;2023-03-26T00:16:43;9.50;53.50
17992;DHT22;9121;50.926;5.340;2023-03-26T00:19:13;9.50;52.90
17992;DHT22;9121;50.926;5.340;2023-03-26T00:21:41;9.50;51.60
17992;DHT22;9121;50.926;5.340;2023-03-26T00:24:10;9.50;52.20
17992;DHT22;9121;50.926;5.340;2023-03-26T00:26:39;9.50;50.40
17992;DHT22;9121;50.926;5.340;2023-03-26T00:29:06;9.50;49.00
17992;DHT22;9121;50.926;5.340;2023-03-26T00:31:35;9.50;48.00
17992;DHT22;9121;50.926;5.340;2023-03-26T00:34:04;9.60;47.00
17992;DHT22;9121;50.926;5.340;2023-03-26T00:36:33;9.60;42.90
17992;DHT22;9121;50.926;5.340;2023-03-26T00:39:02;9.60;44.20
17992;DHT22;9121;50.926;5.340;2023-03-26T00:41:30;9.60;41.00
17992;DHT22;9121;50.926;5.340;2023-03-26T00:43:58;9.70;36.90
17992;DHT22;9121;50.926;5.340;2023-03-26T00:46:29;9.60;31.50
17992;DHT22;9121;50.926;5.340;2023-03-26T00:48:56;9.70;33.30
17992;DHT22;9121;50.926;5.340;2023-03-26T00:51:25;9.80;29.20
17992;DHT22;9121;50.926;5.340;2023-03-26T00:53:53;9.90;27.10
17992;DHT22;9121;50.926;5.340;2023-03-26T00:56:21;9.90;25.70
17992;DHT22;9121;50.926;5.340;2023-03-26T00:58:48;9.90;26.90
17992;DHT22;9121;50.926;5.340;2023-03-26T01:01:17;9.90;28.00
17992;DHT22;9121;50.926;5.340;2023-03-26T01:03:45;9.90;31.80
17992;DHT22;9121;50.926;5.340;2023-03-26T01:06:15;9.90;32.00
17992;DHT22;9121;50.926;5.340;2023-03-26T01:08:45;9.90;28.60
17992;DHT22;9121;50.926;5.340;2023-03-26T01:11:18;10.00;27.00
17992;DHT22;9121;50.926;5.340;2023-03-26T01:13:47;10.00;26.30
17992;DHT22;9121;50.926;5.340;2023-03-26T01:16:20;10.00;30.00
17992;DHT22;9121;50.926;5.340;2023-03-26T01:18:48;10.00;33.20
17992;DHT22;9121;50.926;5.340;2023-03-26T01:21:21;10.10;36.50
17992;DHT22;9121;50.926;5.340;2023-03-26T01:23:59;10.00;43.10
17992;DHT22;9121;50.926;5.340;2023-03-26T01:26:36;10.10;45.40
17992;DHT22;9121;50.926;5.340;2023-03-26T01:29:05;10.20;47.80
17992;DHT22;9121;50.926;5.340;2023-03-26T01:31:37;10.10;50.00
17992;DHT22;9121;50.926;5.340;2023-03-26T01:34:11;10.10;53.90
17992;DHT22;9121;50.926;5.340;2023-03-26T01:36:48;10.00;60.20
17992;DHT22;9121;50.926;5.340;2023-03-26T01:39:21;10.00;68.30
17992;DHT22;9121;50.926;5.340;2023-03-26T01:41:51;10.00;67.90
17992;DHT22;9121;50.926;5.340;2023-03-26T01:44:26;10.00;70.70
17992;DHT22;9121;50.926;5.340;2023-03-26T01:46:54;10.00;71.50
17992;DHT22;9121;50.926;5.340;2023-03-26T01:49:21;10.00;72.90
17992;DHT22;9121;50.926;5.340;2023-03-26T01:51:50;10.00;74.20
17992;DHT22;9121;50.926;5.340;2023-03-26T01:54:20;10.00;74.30
17992;DHT22;9121;50.926;5.340;2023-03-26T01:57:01;10.10;73.20
17992;DHT22;9121;50.926;5.340;2023-03-26T01:59:45;10.10;71.90
17992;DHT22;9121;50.926;5.340;2023-03-26T02:02:21;10.20;66.40
17992;DHT22;9121;50.926;5.340;2023-03-26T02:04:55;10.20;67.10
17992;DHT22;9121;50.926;5.340;2023-03-26T02:07:32;10.20;64.60
17992;DHT22;9121;50.926;5.340;2023-03-26T02:10:07;10.20;62.80
17992;DHT22;9121;50.926;5.340;2023-03-26T02:12:38;10.20;68.50
17992;DHT22;9121;50.926;5.340;2023-03-26T02:15:06;10.10;83.00
17992;DHT22;9121;50.926;5.340;2023-03-26T02:17:34;10.10;84.40
17992;DHT22;9121;50.926;5.340;2023-03-26T02:20:05;10.10;81.50
17992;DHT22;9121;50.926;5.340;2023-03-26T02:22:34;10.10;85.80
17992;DHT22;9121;50.926;5.340;2023-03-26T02:25:08;10.10;86.90
17992;DHT22;9121;50.926;5.340;2023-03-26T02:27:35;10.10;85.20
17992;DHT22;9121;50.926;5.340;2023-03-26T02:30:04;10.10;84.30
17992;DHT22;9121;50.926;5.340;2023-03-26T02:32:31;10.10;81.70
17992;DHT22;9121;50.926;5.340;2023-03-26T02:34:59;10.10;80.50
17992;DHT22;9121;50.926;5.340;2023-03-26T02:37:26;10.00;80.40
17992;DHT22;9121;50.926;5.340;2023-03-26T02:39:55;10.00;79.60
17992;DHT22;9121;50.926;5.340;2023-03-26T02:42:23;10.10;80.30
17992;DHT22;9121;50.926;5.340;2023-03-26T02:44:50;10.00;79.20
17992;DHT22;9121;50.926;5.340;2023-03-26T02:47:17;10.00;83.20
17992;DHT22;9121;50.926;5.340;2023-03-26T02:49:45;10.00;83.80
17992;DHT22;9121;50.926;5.340;2023-03-26T02:52:12;10.00;79.60
17992;DHT22;9121;50.926;5.340;2023-03-26T02:54:41;10.10;77.80
17992;DHT22;9121;50.926;5.340;2023-03-26T02:57:08;10.00;79.30
17992;DHT22;9121;50.926;5.340;2023-03-26T02:59:37;10.00;86.20
17992;DHT22;9121;50.926;5.340;2023-03-26T03:02:04;9.90;92.00
17992;DHT22;9121;50.926;5.340;2023-03-26T03:04:31;9.90;93.00
17992;DHT22;9121;50.926;5.340;2023-03-26T03:06:57;9.90;95.40
17992;DHT22;9121;50.926;5.340;2023-03-26T03:09:25;9.90;93.80
17992;DHT22;9121;50.926;5.340;2023-03-26T03:11:52;9.80;95.20
17992;DHT22;9121;50.926;5.340;2023-03-26T03:14:19;9.80;95.10
17992;DHT22;9121;50.926;5.340;2023-03-26T03:16:47;9.80;94.70
17992;DHT22;9121;50.926;5.340;2023-03-26T03:19:14;9.90;94.10
17992;DHT22;9121;50.926;5.340;2023-03-26T03:21:41;9.90;94.30
17992;DHT22;9121;50.926;5.340;2023-03-26T03:24:09;9.80;92.20
17992;DHT22;9121;50.926;5.340;2023-03-26T03:26:38;9.80;94.20
17992;DHT22;9121;50.926;5.340;2023-03-26T03:29:07;9.80;94.70
17992;DHT22;9121;50.926;5.340;2023-03-26T03:31:34;9.80;94.90
17992;DHT22;9121;50.926;5.340;2023-03-26T03:34:02;9.80;94.70
17992;DHT22;9121;50.926;5.340;2023-03-26T03:36:29;9.70;94.10
17992;DHT22;9121;50.926;5.340;2023-03-26T03:38:57;9.60;97.10
17992;DHT22;9121;50.926;5.340;2023-03-26T03:41:27;9.60;95.50
17992;DHT22;9121;50.926;5.340;2023-03-26T03:43:54;9.50;96.40
17992;DHT22;9121;50.926;5.340;2023-03-26T03:46:23;9.50;98.30
17992;DHT22;9121;50.926;5.340;2023-03-26T03:48:50;9.50;97.50
17992;DHT22;9121;50.926;5.340;2023-03-26T03:51:18;9.50;96.50
17992;DHT22;9121;50.926;5.340;2023-03-26T03:53:45;9.60;98.40
17992;DHT22;9121;50.926;5.340;2023-03-26T03:56:13;9.60;97.40
17992;DHT22;9121;50.926;5.340;2023-03-26T03:58:43;9.60;97.70
17992;DHT22;9121;50.926;5.340;2023-03-26T04:01:12;9.60;97.90
17992;DHT22;9121;50.926;5.340;2023-03-26T04:03:39;9.70;96.00
17992;DHT22;9121;50.926;5.340;2023-03-26T04:06:07;9.70;95.80
17992;DHT22;9121;50.926;5.340;2023-03-26T04:08:37;9.70;97.00
17992;DHT22;9121;50.926;5.340;2023-03-26T04:11:04;9.60;98.30
17992;DHT22;9121;50.926;5.340;2023-03-26T04:13:31;9.60;99.90
17992;DHT22;9121;50.926;5.340;2023-03-26T04:15:58;9.60;99.90
17992;DHT22;9121;50.926;5.340;2023-03-26T04:18:25;9.60;99.90
17992;DHT22;9121;50.926;5.340;2023-03-26T04:20:52;9.60;99.90
17992;DHT22;9121;50.926;5.340;2023-03-26T04:23:20;9.50;99.90
17992;DHT22;9121;50.926;5.340;2023-03-26T04:25:51;9.40;99.90
17992;DHT22;9121;50.926;5.340;2023-03-26T04:28:26;9.30;99.90
17992;DHT22;9121;50.926;5.340;2023-03-26T04:30:56;9.20;99.90
17992;DHT22;9121;50.926;5.340;2023-03-26T04:33:26;9.20;99.90
17992;DHT22;9121;50.926;5.340;2023-03-26T04:35:53;9.20;99.90
17992;DHT22;9121;50.926;5.340;2023-03-26T04:38:26;9.10;99.90
17992;DHT22;9121;50.926;5.340;2023-03-26T04:40:54;9.20;99.90
17992;DHT22;9121;50.926;5.340;2023-03-26T04:43:24;9.30;99.90
17992;DHT22;9121;50.926;5.340;2023-03-26T04:45:52;9.30;99.90
17992;DHT22;9121;50.926;5.340;2023-03-26T04:48:19;9.40;99.90
17992;DHT22;9121;50.926;5.340;2023-03-26T04:50:46;9.30;99.90
17992;DHT22;9121;50.926;5.340;2023-03-26T04:53:15;9.40;99.90
17992;DHT22;9121;50.926;5.340;2023-03-26T04:55:47;9.40;99.90
17992;DHT22;9121;50.926;5.340;2023-03-26T04:58:17;9.50;99.90
17992;DHT22;9121;50.926;5.340;2023-03-26T05:00:45;9.50;99.90
17992;DHT22;9121;50.926;5.340;2023-03-26T05:03:14;9.50;99.90
17992;DHT22;9121;50.926;5.340;2023-03-26T05:05:41;9.50;99.90
17992;DHT22;9121;50.926;5.340;2023-03-26T05:08:08;9.50;99.90
17992;DHT22;9121;50.926;5.340;2023-03-26T05:10:35;9.50;99.90
17992;DHT22;9121;50.926;5.340;2023-03-26T05:13:02;9.50;99.90
17992;DHT22;9121;50.926;5.340;2023-03-26T05:15:30;9.50;99.90
17992;DHT22;9121;50.926;5.340;2023-03-26T05:17:57;9.50;99.90
17992;DHT22;9121;50.926;5.340;2023-03-26T05:20:27;9.50;99.90
17992;DHT22;9121;50.926;5.340;2023-03-26T05:22:56;9.50;99.90
17992;DHT22;9121;50.926;5.340;2023-03-26T05:25:23;9.50;99.90
17992;DHT22;9121;50.926;5.340;2023-03-26T05:27:50;9.40;99.90
17992;DHT22;9121;50.926;5.340;2023-03-26T05:30:19;9.40;99.90
17992;DHT22;9121;50.926;5.340;2023-03-26T05:32:48;9.30;99.90
17992;DHT22;9121;50.926;5.340;2023-03-26T05:35:16;9.20;99.90
17992;DHT22;9121;50.926;5.340;2023-03-26T05:37:44;9.20;99.90
17992;DHT22;9121;50.926;5.340;2023-03-26T05:40:12;9.20;99.90
17992;DHT22;9121;50.926;5.340;2023-03-26T05:42:41;9.20;99.90
17992;DHT22;9121;50.926;5.340;2023-03-26T05:45:10;9.20;99.90
17992;DHT22;9121;50.926;5.340;2023-03-26T05:47:37;9.30;99.90
17992;DHT22;9121;50.926;5.340;2023-03-26T05:50:07;9.30;99.90
17992;DHT22;9121;50.926;5.340;2023-03-26T05:52:34;9.40;99.90
17992;DHT22;9121;50.926;5.340;2023-03-26T05:55:01;9.40;99.90
17992;DHT22;9121;50.926;5.340;2023-03-26T05:57:29;9.40;99.90
17992;DHT22;9121;50.926;5.340;2023-03-26T05:59:56;9.40;99.90
17992;DHT22;9121;50.926;5.340;2023-03-26T06:02:23;9.40;99.90
17992;DHT22;9121;50.926;5.340;2023-03-26T06:04:49;9.40;99.90
17992;DHT22;9121;50.926;5.340;2023-03-26T06:07:18;9.40;99.90
17992;DHT22;9121;50.926;5.340;2023-03-26T06:09:45;9.50;99.90
17992;DHT22;9121;50.926;5.340;2023-03-26T06:12:13;9.50;99.90
17992;DHT22;9121;50.926;5.340;2023-03-26T06:14:40;9.50;99.90
17992;DHT22;9121;50.926;5.340;2023-03-26T06:17:08;9.50;99.90
17992;DHT22;9121;50.926;5.340;2023-03-26T06:19:35;9.40;99.90
17992;DHT22;9121;50.926;5.340;2023-03-26T06:22:03;9.40;99.90
17992;DHT22;9121;50.926;5.340;2023-03-26T06:24:32;9.40;99.90
17992;DHT22;9121;50.926;5.340;2023-03-26T06:26:59;9.50;99.90
17992;DHT22;9121;50.926;5.340;2023-03-26T06:29:26;9.40;99.90
17992;DHT22;9121;50.926;5.340;2023-03-26T06:31:53;9.50;99.90
17992;DHT22;9121;50.926;5.340;2023-03-26T06:34:20;9.50;99.90
17992;DHT22;9121;50.926;5.340;2023-03-26T06:36:48;9.40;99.90
17992;DHT22;9121;50.926;5.340;2023-03-26T06:39:17;9.40;99.90
17992;DHT22;9121;50.926;5.340;2023-03-26T06:41:46;9.30;99.90
17992;DHT22;9121;50.926;5.340;2023-03-26T06:44:13;9.30;99.90
17992;DHT22;9121;50.926;5.340;2023-03-26T06:46:40;9.40;99.90
17992;DHT22;9121;50.926;5.340;2023-03-26T06:49:07;9.30;99.90
17992;DHT22;9121;50.926;5.340;2023-03-26T06:51:34;9.30;99.90
17992;DHT22;9121;50.926;5.340;2023-03-26T06:54:03;9.30;99.90
17992;DHT22;9121;50.926;5.340;2023-03-26T06:56:30;9.20;99.90
17992;DHT22;9121;50.926;5.340;2023-03-26T06:59:00;9.20;99.90
17992;DHT22;9121;50.926;5.340;2023-03-26T07:01:27;9.00;99.90
17992;DHT22;9121;50.926;5.340;2023-03-26T07:03:54;9.00;99.90
17992;DHT22;9121;50.926;5.340;2023-03-26T07:06:22;8.90;99.90
17992;DHT22;9121;50.926;5.340;2023-03-26T07:08:48;8.90;99.90
17992;DHT22;9121;50.926;5.340;2023-03-26T07:11:15;8.90;99.90
17992;DHT22;9121;50.926;5.340;2023-03-26T07:13:45;8.90;99.90
17992;DHT22;9121;50.926;5.340;2023-03-26T07:16:13;8.80;99.90
17992;DHT22;9121;50.926;5.340;2023-03-26T07:18:41;8.80;99.90
17992;DHT22;9121;50.926;5.340;2023-03-26T07:21:09;8.80;99.90
17992;DHT22;9121;50.926;5.340;2023-03-26T07:23:36;8.80;99.90
17992;DHT22;9121;50.926;5.340;2023-03-26T07:26:13;8.70;99.90
17992;DHT22;9121;50.926;5.340;2023-03-26T07:28:48;8.60;99.90
17992;DHT22;9121;50.926;5.340;2023-03-26T07:31:23;8.60;99.90
17992;DHT22;9121;50.926;5.340;2023-03-26T07:33:57;8.60;99.90
17992;DHT22;9121;50.926;5.340;2023-03-26T07:36:32;8.50;99.90
17992;DHT22;9121;50.926;5.340;2023-03-26T07:39:11;8.50;99.90
17992;DHT22;9121;50.926;5.340;2023-03-26T07:41:44;8.40;99.90
17992;DHT22;9121;50.926;5.340;2023-03-26T07:44:26;8.40;99.90
17992;DHT22;9121;50.926;5.340;2023-03-26T07:46:56;8.40;99.90
17992;DHT22;9121;50.926;5.340;2023-03-26T07:49:25;8.50;99.90
17992;DHT22;9121;50.926;5.340;2023-03-26T07:51:54;8.50;99.90
17992;DHT22;9121;50.926;5.340;2023-03-26T07:54:22;8.60;99.90
17992;DHT22;9121;50.926;5.340;2023-03-26T07:56:52;8.50;99.90
17992;DHT22;9121;50.926;5.340;2023-03-26T07:59:25;8.50;99.90
17992;DHT22;9121;50.926;5.340;2023-03-26T08:02:16;8.50;99.90
17992;DHT22;9121;50.926;5.340;2023-03-26T08:05:14;8.50;99.90
17992;DHT22;9121;50.926;5.340;2023-03-26T08:07:55;8.40;99.90
17992;DHT22;9121;50.926;5.340;2023-03-26T08:10:32;8.40;99.90
17992;DHT22;9121;50.926;5.340;2023-03-26T08:13:14;8.30;99.90
17992;DHT22;9121;50.926;5.340;2023-03-26T08:15:46;8.30;99.90
17992;DHT22;9121;50.926;5.340;2023-03-26T08:18:28;8.30;99.90
17992;DHT22;9121;50.926;5.340;2023-03-26T08:20:59;8.50;99.90
17992;DHT22;9121;50.926;5.340;2023-03-26T08:23:34;8.50;99.90
17992;DHT22;9121;50.926;5.340;2023-03-26T08:26:07;8.50;99.90
17992;DHT22;9121;50.926;5.340;2023-03-26T08:28:53;8.60;99.90
17992;DHT22;9121;50.926;5.340;2023-03-26T08:31:31;8.50;99.90
17992;DHT22;9121;50.926;5.340;2023-03-26T08:34:01;8.60;99.90
17992;DHT22;9121;50.926;5.340;2023-03-26T08:36:28;8.70;99.90
17992;DHT22;9121;50.926;5.340;2023-03-26T08:38:55;8.60;99.90
17992;DHT22;9121;50.926;5.340;2023-03-26T08:41:43;8.60;99.90
17992;DHT22;9121;50.926;5.340;2023-03-26T08:47:59;8.70;99.90
17992;DHT22;9121;50.926;5.340;2023-03-26T08:54:06;8.80;99.90
17992;DHT22;9121;50.926;5.340;2023-03-26T08:56:48;8.50;99.90
17992;DHT22;9121;50.926;5.340;2023-03-26T08:59:43;8.50;99.90
17992;DHT22;9121;50.926;5.340;2023-03-26T09:02:37;8.60;99.90
17992;DHT22;9121;50.926;5.340;2023-03-26T09:06:01;8.80;99.90
17992;DHT22;9121;50.926;5.340;2023-03-26T09:15:27;8.70;99.90
17992;DHT22;9121;50.926;5.340;2023-03-26T09:18:28;8.60;99.90
17992;DHT22;9121;50.926;5.340;2023-03-26T09:21:31;8.50;99.90
17992;DHT22;9121;50.926;5.340;2023-03-26T09:27:08;8.30;99.90
17992;DHT22;9121;50.926;5.340;2023-03-26T09:30:09;8.10;99.90
17992;DHT22;9121;50.926;5.340;2023-03-26T09:35:50;8.20;99.90
17992;DHT22;9121;50.926;5.340;2023-03-26T09:38:35;8.50;99.90
17992;DHT22;9121;50.926;5.340;2023-03-26T09:41:11;8.70;99.90
17992;DHT22;9121;50.926;5.340;2023-03-26T09:43:57;8.70;99.90
17992;DHT22;9121;50.926;5.340;2023-03-26T09:46:31;8.70;99.90
17992;DHT22;9121;50.926;5.340;2023-03-26T09:49:21;8.60;99.90
17992;DHT22;9121;50.926;5.340;2023-03-26T09:51:58;8.60;99.90
17992;DHT22;9121;50.926;5.340;2023-03-26T09:54:51;8.60;99.90
17992;DHT22;9121;50.926;5.340;2023-03-26T09:57:41;8.70;99.90
17992;DHT22;9121;50.926;5.340;2023-03-26T10:00:20;8.70;99.90
17992;DHT22;9121;50.926;5.340;2023-03-26T10:03:12;8.70;99.90
17992;DHT22;9121;50.926;5.340;2023-03-26T10:05:58;8.80;99.90
17992;DHT22;9121;50.926;5.340;2023-03-26T10:08:41;8.80;99.90
17992;DHT22;9121;50.926;5.340;2023-03-26T10:11:20;8.80;99.90
17992;DHT22;9121;50.926;5.340;2023-03-26T10:13:56;8.90;99.90
17992;DHT22;9121;50.926;5.340;2023-03-26T10:16:35;9.10;99.90
17992;DHT22;9121;50.926;5.340;2023-03-26T10:19:17;9.10;99.90
17992;DHT22;9121;50.926;5.340;2023-03-26T10:21:53;9.20;99.90
17992;DHT22;9121;50.926;5.340;2023-03-26T10:24:36;9.00;99.90
17992;DHT22;9121;50.926;5.340;2023-03-26T10:27:21;8.90;99.90
17992;DHT22;9121;50.926;5.340;2023-03-26T10:30:06;8.90;99.90
17992;DHT22;9121;50.926;5.340;2023-03-26T10:32:46;9.00;99.90
17992;DHT22;9121;50.926;5.340;2023-03-26T10:35:22;9.10;99.90
17992;DHT22;9121;50.926;5.340;2023-03-26T10:38:00;9.00;99.90
17992;DHT22;9121;50.926;5.340;2023-03-26T10:40:33;9.20;99.90
17992;DHT22;9121;50.926;5.340;2023-03-26T10:43:23;9.20;99.90
17992;DHT22;9121;50.926;5.340;2023-03-26T10:46:08;9.10;99.90
17992;DHT22;9121;50.926;5.340;2023-03-26T10:48:57;9.10;99.90
17992;DHT22;9121;50.926;5.340;2023-03-26T10:51:45;9.30;99.90
17992;DHT22;9121;50.926;5.340;2023-03-26T10:54:29;9.30;99.90
17992;DHT22;9121;50.926;5.340;2023-03-26T10:57:00;9.40;99.90
17992;DHT22;9121;50.926;5.340;2023-03-26T10:59:30;9.40;99.90
17992;DHT22;9121;50.926;5.340;2023-03-26T11:02:11;9.40;99.90
17992;DHT22;9121;50.926;5.340;2023-03-26T11:04:48;9.50;99.90
17992;DHT22;9121;50.926;5.340;2023-03-26T11:07:20;9.50;99.90
17992;DHT22;9121;50.926;5.340;2023-03-26T11:09:53;9.50;99.90
17992;DHT22;9121;50.926;5.340;2023-03-26T11:12:26;9.60;99.90
17992;DHT22;9121;50.926;5.340;2023-03-26T11:15:07;9.40;99.90
17992;DHT22;9121;50.926;5.340;2023-03-26T11:17:44;9.30;99.90
17992;DHT22;9121;50.926;5.340;2023-03-26T11:20:17;9.30;99.90
17992;DHT22;9121;50.926;5.340;2023-03-26T11:22:57;9.40;99.90
17992;DHT22;9121;50.926;5.340;2023-03-26T11:25:43;9.40;99.90
17992;DHT22;9121;50.926;5.340;2023-03-26T11:28:30;9.30;99.90
17992;DHT22;9121;50.926;5.340;2023-03-26T11:31:05;9.20;99.90
17992;DHT22;9121;50.926;5.340;2023-03-26T11:33:36;9.20;99.90
17992;DHT22;9121;50.926;5.340;2023-03-26T11:36:07;9.20;99.90
17992;DHT22;9121;50.926;5.340;2023-03-26T11:38:37;9.20;99.90
17992;DHT22;9121;50.926;5.340;2023-03-26T11:41:11;9.20;99.90
17992;DHT22;9121;50.926;5.340;2023-03-26T11:43:39;9.30;99.90
17992;DHT22;9121;50.926;5.340;2023-03-26T11:46:11;9.20;99.90
17992;DHT22;9121;50.926;5.340;2023-03-26T11:48:42;9.30;99.90
17992;DHT22;9121;50.926;5.340;2023-03-26T11:51:15;9.30;99.90
17992;DHT22;9121;50.926;5.340;2023-03-26T11:53:44;9.40;99.90
17992;DHT22;9121;50.926;5.340;2023-03-26T11:56:16;9.40;99.90
17992;DHT22;9121;50.926;5.340;2023-03-26T11:58:48;9.20;99.90
17992;DHT22;9121;50.926;5.340;2023-03-26T12:01:21;9.20;99.90
17992;DHT22;9121;50.926;5.340;2023-03-26T12:04:02;9.20;99.90
17992;DHT22;9121;50.926;5.340;2023-03-26T12:06:29;9.10;99.90
17992;DHT22;9121;50.926;5.340;2023-03-26T12:08:57;9.10;99.90
17992;DHT22;9121;50.926;5.340;2023-03-26T12:11:26;9.20;99.90
17992;DHT22;9121;50.926;5.340;2023-03-26T12:13:57;9.20;99.90
17992;DHT22;9121;50.926;5.340;2023-03-26T12:16:27;9.20;99.90
17992;DHT22;9121;50.926;5.340;2023-03-26T12:18:59;9.20;99.90
17992;DHT22;9121;50.926;5.340;2023-03-26T12:21:26;9.20;99.90
17992;DHT22;9121;50.926;5.340;2023-03-26T12:23:56;9.30;99.90
17992;DHT22;9121;50.926;5.340;2023-03-26T12:26:35;9.20;99.90
17992;DHT22;9121;50.926;5.340;2023-03-26T12:29:07;9.10;99.90
17992;DHT22;9121;50.926;5.340;2023-03-26T12:31:50;9.10;99.90
17992;DHT22;9121;50.926;5.340;2023-03-26T12:34:20;9.00;99.90
17992;DHT22;9121;50.926;5.340;2023-03-26T12:36:50;9.10;99.90
17992;DHT22;9121;50.926;5.340;2023-03-26T12:39:35;9.20;99.90
17992;DHT22;9121;50.926;5.340;2023-03-26T12:42:04;9.10;99.90
17992;DHT22;9121;50.926;5.340;2023-03-26T12:44:34;9.10;99.90
17992;DHT22;9121;50.926;5.340;2023-03-26T12:47:14;9.20;99.90
17992;DHT22;9121;50.926;5.340;2023-03-26T12:49:43;9.30;99.90
17992;DHT22;9121;50.926;5.340;2023-03-26T12:52:25;9.20;99.90
17992;DHT22;9121;50.926;5.340;2023-03-26T12:54:59;9.20;99.90
17992;DHT22;9121;50.926;5.340;2023-03-26T12:57:33;9.30;99.90
17992;DHT22;9121;50.926;5.340;2023-03-26T13:00:21;9.40;99.90
17992;DHT22;9121;50.926;5.340;2023-03-26T13:03:09;9.30;99.90
17992;DHT22;9121;50.926;5.340;2023-03-26T13:05:56;9.50;99.90
17992;DHT22;9121;50.926;5.340;2023-03-26T13:08:47;9.60;99.90
17992;DHT22;9121;50.926;5.340;2023-03-26T13:11:23;9.50;99.90
17992;DHT22;9121;50.926;5.340;2023-03-26T13:14:24;9.50;99.90
17992;DHT22;9121;50.926;5.340;2023-03-26T13:16:57;9.40;99.90
17992;DHT22;9121;50.926;5.340;2023-03-26T13:19:32;9.50;99.90
17992;DHT22;9121;50.926;5.340;2023-03-26T13:22:09;9.60;99.90
17992;DHT22;9121;50.926;5.340;2023-03-26T13:24:49;9.70;99.90
17992;DHT22;9121;50.926;5.340;2023-03-26T13:27:40;9.70;99.90
17992;DHT22;9121;50.926;5.340;2023-03-26T13:30:18;9.60;99.90
17992;DHT22;9121;50.926;5.340;2023-03-26T13:32:56;9.70;99.90
17992;DHT22;9121;50.926;5.340;2023-03-26T13:35:30;9.80;99.90
17992;DHT22;9121;50.926;5.340;2023-03-26T13:38:04;9.90;99.90
17992;DHT22;9121;50.926;5.340;2023-03-26T13:40:43;10.00;99.90
17992;DHT22;9121;50.926;5.340;2023-03-26T13:43:25;10.00;99.90
17992;DHT22;9121;50.926;5.340;2023-03-26T13:45:59;10.10;99.90
17992;DHT22;9121;50.926;5.340;2023-03-26T13:48:34;10.00;99.90
17992;DHT22;9121;50.926;5.340;2023-03-26T13:51:08;10.20;99.90
17992;DHT22;9121;50.926;5.340;2023-03-26T13:53:42;10.30;99.90
17992;DHT22;9121;50.926;5.340;2023-03-26T13:56:12;10.20;99.90
17992;DHT22;9121;50.926;5.340;2023-03-26T13:58:43;10.10;99.90
17992;DHT22;9121;50.926;5.340;2023-03-26T14:01:14;10.00;99.90
17992;DHT22;9121;50.926;5.340;2023-03-26T14:03:52;10.10;99.90
17992;DHT22;9121;50.926;5.340;2023-03-26T14:06:31;10.20;99.90
17992;DHT22;9121;50.926;5.340;2023-03-26T14:09:05;10.30;99.90
17992;DHT22;9121;50.926;5.340;2023-03-26T14:11:48;10.30;99.90
17992;DHT22;9121;50.926;5.340;2023-03-26T14:14:24;10.30;99.90
17992;DHT22;9121;50.926;5.340;2023-03-26T14:16:55;10.40;99.90
17992;DHT22;9121;50.926;5.340;2023-03-26T14:19:46;10.40;99.90
17992;DHT22;9121;50.926;5.340;2023-03-26T14:22:26;10.30;99.90
17992;DHT22;9121;50.926;5.340;2023-03-26T14:25:07;10.30;99.90
17992;DHT22;9121;50.926;5.340;2023-03-26T14:27:57;10.10;99.90
17992;DHT22;9121;50.926;5.340;2023-03-26T14:30:41;10.10;99.90
17992;DHT22;9121;50.926;5.340;2023-03-26T14:33:25;10.00;99.90
17992;DHT22;9121;50.926;5.340;2023-03-26T14:36:05;10.00;99.90
17992;DHT22;9121;50.926;5.340;2023-03-26T14:41:47;10.00;96.30
17992;DHT22;9121;50.926;5.340;2023-03-26T14:44:38;10.10;95.50
17992;DHT22;9121;50.926;5.340;2023-03-26T14:47:13;10.20;96.70
17992;DHT22;9121;50.926;5.340;2023-03-26T14:52:53;10.40;95.80
17992;DHT22;9121;50.926;5.340;2023-03-26T15:01:43;10.30;72.40
17992;DHT22;9121;50.926;5.340;2023-03-26T15:04:50;10.30;78.10
17992;DHT22;9121;50.926;5.340;2023-03-26T15:07:53;10.40;79.40
17992;DHT22;9121;50.926;5.340;2023-03-26T15:10:57;10.60;90.00
17992;DHT22;9121;50.926;5.340;2023-03-26T15:13:44;10.60;77.20
17992;DHT22;9121;50.926;5.340;2023-03-26T15:23:03;10.50;77.20
17992;DHT22;9121;50.926;5.340;2023-03-26T15:29:02;10.50;93.80
17992;DHT22;9121;50.926;5.340;2023-03-26T15:34:53;10.50;93.30
17992;DHT22;9121;50.926;5.340;2023-03-26T15:37:46;10.50;97.00
17992;DHT22;9121;50.926;5.340;2023-03-26T15:40:59;10.50;94.70
17992;DHT22;9121;50.926;5.340;2023-03-26T15:49:53;10.40;99.90
17992;DHT22;9121;50.926;5.340;2023-03-26T15:52:26;10.40;99.90
17992;DHT22;9121;50.926;5.340;2023-03-26T15:54:59;10.40;99.90
17992;DHT22;9121;50.926;5.340;2023-03-26T15:57:31;10.50;99.90
17992;DHT22;9121;50.926;5.340;2023-03-26T16:00:11;10.50;99.90
17992;DHT22;9121;50.926;5.340;2023-03-26T16:02:55;10.50;99.90
17992;DHT22;9121;50.926;5.340;2023-03-26T16:05:44;10.50;99.90
17992;DHT22;9121;50.926;5.340;2023-03-26T16:08:20;10.40;99.90
17992;DHT22;9121;50.926;5.340;2023-03-26T16:10:54;10.30;99.90
17992;DHT22;9121;50.926;5.340;2023-03-26T16:13:29;10.30;99.90
17992;DHT22;9121;50.926;5.340;2023-03-26T16:16:19;10.30;99.90
17992;DHT22;9121;50.926;5.340;2023-03-26T16:21:52;10.30;99.90
17992;DHT22;9121;50.926;5.340;2023-03-26T16:24:23;10.20;99.90
17992;DHT22;9121;50.926;5.340;2023-03-26T16:32:53;10.10;99.90
17992;DHT22;9121;50.926;5.340;2023-03-26T16:35:46;10.00;99.90
17992;DHT22;9121;50.926;5.340;2023-03-26T16:38:23;9.90;99.90
17992;DHT22;9121;50.926;5.340;2023-03-26T16:41:01;9.90;99.90
17992;DHT22;9121;50.926;5.340;2023-03-26T16:43:42;9.70;99.90
17992;DHT22;9121;50.926;5.340;2023-03-26T16:46:25;9.70;99.90
17992;DHT22;9121;50.926;5.340;2023-03-26T16:48:57;9.50;99.90
17992;DHT22;9121;50.926;5.340;2023-03-26T16:51:37;9.60;99.90
17992;DHT22;9121;50.926;5.340;2023-03-26T16:54:16;9.40;99.90
17992;DHT22;9121;50.926;5.340;2023-03-26T16:56:53;9.40;99.90
17992;DHT22;9121;50.926;5.340;2023-03-26T16:59:45;9.30;99.90
17992;DHT22;9121;50.926;5.340;2023-03-26T17:02:20;9.30;99.90
17992;DHT22;9121;50.926;5.340;2023-03-26T17:04:55;9.30;99.90
17992;DHT22;9121;50.926;5.340;2023-03-26T17:07:28;9.40;99.90
17992;DHT22;9121;50.926;5.340;2023-03-26T17:10:07;9.50;99.90
17992;DHT22;9121;50.926;5.340;2023-03-26T17:12:39;9.50;99.90
17992;DHT22;9121;50.926;5.340;2023-03-26T17:15:25;9.60;98.00
17992;DHT22;9121;50.926;5.340;2023-03-26T17:18:26;9.50;99.90
17992;DHT22;9121;50.926;5.340;2023-03-26T17:21:01;9.50;98.00
17992;DHT22;9121;50.926;5.340;2023-03-26T17:23:36;9.60;98.50
17992;DHT22;9121;50.926;5.340;2023-03-26T17:26:16;9.50;94.90
17992;DHT22;9121;50.926;5.340;2023-03-26T17:28:52;9.50;94.90
17992;DHT22;9121;50.926;5.340;2023-03-26T17:31:34;9.60;92.60
17992;DHT22;9121;50.926;5.340;2023-03-26T17:40:48;9.60;91.20
17992;DHT22;9121;50.926;5.340;2023-03-26T17:46:19;9.60;88.40
17992;DHT22;9121;50.926;5.340;2023-03-26T17:48:54;9.50;91.00
17992;DHT22;9121;50.926;5.340;2023-03-26T17:51:34;9.40;93.00
17992;DHT22;9121;50.926;5.340;2023-03-26T17:54:07;9.40;93.20